TimeCST,TemperatureF,Dew PointF,Humidity,Sea Level PressureIn,VisibilityMPH,Wind Direction,Wind SpeedMPH,Gust SpeedMPH,PrecipitationIn,Events,Conditions,WindDirDegrees,DateUTC
12:15 AM,38.3,29.3,70,29.79,10.0,West,8.1,-,N/A,,Scattered Clouds,280,2013-02-14 06:15:00
12:35 AM,38.5,29.7,71,29.79,10.0,West,8.1,-,N/A,,Mostly Cloudy,270,2013-02-14 06:35:00
12:55 AM,38.3,29.7,71,29.80,10.0,WNW,8.1,-,N/A,,Scattered Clouds,290,2013-02-14 06:55:00
1:15 AM,40.5,30.2,67,29.81,10.0,WNW,11.5,-,N/A,,Clear,290,2013-02-14 07:15:00
1:35 AM,40.5,30.2,67,29.81,10.0,WNW,11.5,-,N/A,,Clear,290,2013-02-14 07:35:00
1:55 AM,39.7,30.6,70,29.81,10.0,WNW,10.4,-,N/A,,Scattered Clouds,300,2013-02-14 07:55:00
2:15 AM,40.5,30.9,69,29.82,10.0,WNW,13.8,17.3,N/A,,Overcast,290,2013-02-14 08:15:00
2:35 AM,40.3,30.9,69,29.83,10.0,WNW,15.0,20.7,N/A,,Scattered Clouds,290,2013-02-14 08:35:00
2:55 AM,39.4,30.7,71,29.84,10.0,WNW,16.1,-,N/A,,Clear,290,2013-02-14 08:55:00
3:15 AM,39.2,30.7,72,29.84,10.0,WNW,15.0,23.0,N/A,,Clear,300,2013-02-14 09:15:00
3:35 AM,37.9,30.4,74,29.85,10.0,NW,12.7,-,N/A,,Clear,310,2013-02-14 09:35:00
3:55 AM,37.0,30.2,76,29.85,10.0,WNW,8.1,-,N/A,,Clear,300,2013-02-14 09:55:00
4:15 AM,35.8,29.8,79,29.86,10.0,West,11.5,-,N/A,,Clear,280,2013-02-14 10:15:00
4:35 AM,36.9,30.2,77,29.86,10.0,WNW,12.7,-,N/A,,Clear,300,2013-02-14 10:35:00
4:55 AM,36.5,30.2,78,29.87,10.0,WNW,12.7,-,N/A,,Clear,300,2013-02-14 10:55:00
5:15 AM,35.8,30.0,80,29.88,10.0,WNW,10.4,-,N/A,,Clear,300,2013-02-14 11:15:00
5:35 AM,35.8,30.2,80,29.88,10.0,NW,15.0,-,N/A,,Clear,310,2013-02-14 11:35:00
5:55 AM,34.5,30.2,84,29.89,10.0,NW,9.2,-,N/A,,Clear,310,2013-02-14 11:55:00
6:15 AM,34.5,30.0,84,29.91,10.0,WNW,9.2,-,N/A,,Clear,290,2013-02-14 12:15:00
6:35 AM,34.5,30.2,84,29.92,10.0,WNW,11.5,-,N/A,,Clear,300,2013-02-14 12:35:00
6:55 AM,34.3,30.2,85,29.93,10.0,NW,10.4,-,N/A,,Clear,310,2013-02-14 12:55:00
7:15 AM,33.8,29.8,85,29.94,10.0,NW,9.2,-,N/A,,Clear,310,2013-02-14 13:15:00
7:35 AM,32.9,29.3,87,29.94,10.0,NW,8.1,-,N/A,,Clear,320,2013-02-14 13:35:00
7:55 AM,33.8,30.2,87,29.95,10.0,WNW,5.8,-,N/A,,Scattered Clouds,300,2013-02-14 13:55:00
8:15 AM,34.0,30.7,88,29.95,10.0,NW,6.9,-,N/A,,Clear,310,2013-02-14 14:15:00
8:35 AM,34.9,31.1,86,29.96,10.0,WNW,6.9,-,N/A,,Clear,300,2013-02-14 14:35:00
8:55 AM,36.3,31.6,83,29.97,10.0,WNW,9.2,-,N/A,,Clear,290,2013-02-14 14:55:00
9:15 AM,37.6,31.8,80,29.97,10.0,WNW,9.2,-,N/A,,Clear,300,2013-02-14 15:15:00
9:35 AM,38.3,31.1,75,29.97,10.0,WNW,10.4,-,N/A,,Clear,300,2013-02-14 15:35:00
9:55 AM,39.2,31.8,75,29.97,10.0,West,8.1,-,N/A,,Clear,280,2013-02-14 15:55:00
10:15 AM,39.7,32.0,74,29.98,10.0,WNW,11.5,-,N/A,,Clear,290,2013-02-14 16:15:00
10:35 AM,41.2,32.2,70,29.99,10.0,West,12.7,-,N/A,,Clear,280,2013-02-14 16:35:00
10:55 AM,42.3,32.0,67,29.99,10.0,NW,15.0,-,N/A,,Clear,310,2013-02-14 16:55:00
11:15 AM,43.3,31.5,63,30.00,10.0,NW,17.3,23.0,N/A,,Scattered Clouds,310,2013-02-14 17:15:00
11:35 AM,43.0,30.4,61,30.00,10.0,NW,13.8,-,N/A,,Scattered Clouds,320,2013-02-14 17:35:00
11:55 AM,43.9,29.7,57,30.00,10.0,WNW,13.8,-,N/A,,Scattered Clouds,300,2013-02-14 17:55:00
12:15 PM,44.8,25.9,48,30.01,10.0,NW,16.1,25.3,N/A,,Mostly Cloudy,310,2013-02-14 18:15:00
12:35 PM,43.9,26.6,51,30.01,10.0,West,17.3,25.3,N/A,,Mostly Cloudy,280,2013-02-14 18:35:00
12:55 PM,43.9,24.4,46,30.00,10.0,WNW,18.4,27.6,N/A,,Mostly Cloudy,300,2013-02-14 18:55:00
1:15 PM,45.1,24.4,44,30.00,10.0,West,19.6,-,N/A,,Mostly Cloudy,270,2013-02-14 19:15:00
1:35 PM,45.5,22.8,41,30.00,10.0,West,18.4,27.6,N/A,,Mostly Cloudy,280,2013-02-14 19:35:00
1:55 PM,44.2,23.7,44,30.01,10.0,NW,18.4,28.8,N/A,,Mostly Cloudy,310,2013-02-14 19:55:00
2:15 PM,43.5,23.0,44,30.01,10.0,WNW,18.4,26.5,N/A,,Scattered Clouds,290,2013-02-14 20:15:00
2:35 PM,45.3,23.4,42,30.02,10.0,NW,16.1,25.3,N/A,,Mostly Cloudy,310,2013-02-14 20:35:00
2:55 PM,44.1,23.0,43,30.02,10.0,WNW,15.0,23.0,N/A,,Mostly Cloudy,300,2013-02-14 20:55:00
3:15 PM,45.7,22.6,40,30.03,10.0,WNW,18.4,26.5,N/A,,Mostly Cloudy,290,2013-02-14 21:15:00
3:35 PM,44.4,21.7,41,30.03,10.0,NW,18.4,23.0,N/A,,Mostly Cloudy,310,2013-02-14 21:35:00
3:55 PM,43.3,21.6,42,30.04,10.0,NW,17.3,23.0,N/A,,Mostly Cloudy,310,2013-02-14 21:55:00
4:15 PM,43.0,21.4,42,30.04,10.0,NW,15.0,-,N/A,,Mostly Cloudy,310,2013-02-14 22:15:00
4:35 PM,42.8,21.7,43,30.05,10.0,NW,16.1,25.3,N/A,,Overcast,320,2013-02-14 22:35:00
4:55 PM,41.4,23.7,50,30.06,10.0,NW,16.1,23.0,N/A,,Overcast,310,2013-02-14 22:55:00
5:15 PM,40.5,24.3,52,30.06,10.0,WNW,10.4,17.3,N/A,,Overcast,300,2013-02-14 23:15:00
5:35 PM,39.6,25.0,56,30.06,10.0,NW,11.5,17.3,N/A,,Mostly Cloudy,320,2013-02-14 23:35:00
5:55 PM,38.5,25.5,60,30.07,10.0,NW,10.4,21.9,N/A,,Mostly Cloudy,320,2013-02-14 23:55:00
6:15 PM,37.2,25.9,64,30.08,10.0,NNW,9.2,-,N/A,,Mostly Cloudy,330,2013-02-15 00:15:00
6:35 PM,36.5,26.6,67,30.09,10.0,NNW,8.1,-,N/A,,Overcast,330,2013-02-15 00:35:00
6:55 PM,36.0,28.6,75,30.10,10.0,NNW,9.2,-,N/A,,Overcast,330,2013-02-15 00:55:00
7:15 PM,34.7,28.9,79,30.11,10.0,NNW,9.2,-,N/A,,Mostly Cloudy,330,2013-02-15 01:15:00
7:35 PM,34.9,29.8,82,30.11,10.0,NW,8.1,-,N/A,,Mostly Cloudy,310,2013-02-15 01:35:00
7:55 PM,33.3,31.8,94,30.11,1.0,NW,8.1,-,N/A,Snow,Light Snow,310,2013-02-15 01:55:00
8:15 PM,32.9,32.0,96,30.12,7.0,WNW,6.9,-,N/A,Snow,Light Snow,300,2013-02-15 02:15:00
8:35 PM,33.1,32.0,96,30.13,7.0,NW,8.1,-,N/A,Snow,Light Snow,310,2013-02-15 02:35:00
8:55 PM,32.2,31.3,96,30.14,4.0,North,15.0,25.3,N/A,Snow,Light Snow,350,2013-02-15 02:55:00
9:15 PM,30.2,26.2,85,30.17,2.5,North,16.1,26.5,N/A,Snow,Light Snow,350,2013-02-15 03:15:00
9:35 PM,30.2,21.7,71,30.18,10.0,North,19.6,28.8,N/A,,Overcast,350,2013-02-15 03:35:00
9:55 PM,29.7,18.9,64,30.20,10.0,North,17.3,26.5,N/A,,Overcast,350,2013-02-15 03:55:00
10:15 PM,28.9,18.0,64,30.21,10.0,NNW,19.6,26.5,N/A,,Overcast,340,2013-02-15 04:15:00
10:35 PM,28.4,16.5,61,30.22,10.0,NNW,12.7,19.6,N/A,,Overcast,330,2013-02-15 04:35:00
10:55 PM,28.2,13.8,55,30.24,10.0,NNW,15.0,21.9,N/A,,Overcast,340,2013-02-15 04:55:00
11:15 PM,27.5,16.0,62,30.24,10.0,NNW,18.4,25.3,N/A,,Overcast,330,2013-02-15 05:15:00
11:35 PM,26.6,18.1,70,30.25,10.0,NW,13.8,19.6,N/A,,Overcast,320,2013-02-15 05:35:00
11:55 PM,25.3,15.8,67,30.26,10.0,NW,13.8,20.7,N/A,,Overcast,320,2013-02-15 05:55:00